createdAt,value
2023-01-08T00:00:32.860Z,4.20
2023-01-08T00:05:37.106Z,3.85
2023-01-08T00:10:40.286Z,4.50
2023-01-08T00:15:43.004Z,4.18
2023-01-08T00:20:47.895Z,4.20
2023-01-08T00:25:50.921Z,4.03
2023-01-08T00:30:53.612Z,3.75
2023-01-08T00:35:57.747Z,3.75
2023-01-08T00:41:00.613Z,3.72
2023-01-08T00:46:03.479Z,3.78
2023-01-08T00:51:08.924Z,3.22
2023-01-08T00:56:11.723Z,3.53
2023-01-08T01:01:16.174Z,3.22
2023-01-08T01:06:20.501Z,2.83
2023-01-08T01:11:24.801Z,3.30
2023-01-08T01:16:27.566Z,3.25
2023-01-08T01:21:33.488Z,3.00
2023-01-08T01:26:36.167Z,2.83
2023-01-08T01:31:38.888Z,2.83
2023-01-08T01:36:43.000Z,3.05
2023-01-08T01:41:47.358Z,3.00
2023-01-08T01:46:50.833Z,3.20
2023-01-08T01:51:57.478Z,2.72
2023-01-08T01:57:01.370Z,3.10
2023-01-08T02:02:04.222Z,3.08
2023-01-08T02:07:12.809Z,3.40
2023-01-08T02:12:19.061Z,3.33
2023-01-08T02:17:26.242Z,3.40
2023-01-08T02:22:39.117Z,3.63
2023-01-08T02:27:46.440Z,3.22
2023-01-08T02:32:49.188Z,3.30
2023-01-08T02:37:51.919Z,3.10
2023-01-08T02:43:01.026Z,3.05
2023-01-08T02:48:08.802Z,3.30
2023-01-08T02:53:14.301Z,3.35
2023-01-08T02:58:19.152Z,2.88
2023-01-08T03:03:24.024Z,2.80
2023-01-08T03:08:27.267Z,3.40
2023-01-08T03:13:41.354Z,2.80
2023-01-08T03:18:48.245Z,3.28
2023-01-08T03:23:51.852Z,3.00
2023-01-08T03:28:57.582Z,3.20
2023-01-08T03:34:01.383Z,2.85
2023-01-08T03:39:09.318Z,2.70
2023-01-08T03:44:13.340Z,2.83
2023-01-08T03:49:16.668Z,3.03
2023-01-08T03:54:20.957Z,2.63
2023-01-08T03:59:25.391Z,2.67
2023-01-08T04:04:28.326Z,2.65
2023-01-08T04:09:35.991Z,2.63
2023-01-08T04:14:40.079Z,2.40
2023-01-08T04:19:42.764Z,2.63
2023-01-08T04:24:45.432Z,2.63
2023-01-08T04:29:49.522Z,2.42
2023-01-08T04:34:52.202Z,2.28
2023-01-08T04:39:54.905Z,2.60
2023-01-08T04:44:58.964Z,2.20
2023-01-08T04:50:01.715Z,2.20
2023-01-08T04:55:04.903Z,2.15
2023-01-08T05:00:10.213Z,2.78
2023-01-08T05:05:12.938Z,2.25
2023-01-08T05:10:15.883Z,2.13
2023-01-08T05:15:20.036Z,2.38
2023-01-08T05:20:22.740Z,2.33
2023-01-08T05:25:25.772Z,2.20
2023-01-08T05:30:29.825Z,2.17
2023-01-08T05:35:32.572Z,2.30
2023-01-08T05:40:35.420Z,1.92
2023-01-08T05:45:39.472Z,2.28
2023-01-08T05:50:42.242Z,2.58
2023-01-08T05:55:44.959Z,2.22
2023-01-08T06:00:49.046Z,2.15
2023-01-08T06:05:51.791Z,2.35
2023-01-08T06:10:54.646Z,2.13
2023-01-08T06:16:00.281Z,1.90
2023-01-08T06:21:04.464Z,1.88
2023-01-08T06:26:07.371Z,1.90
2023-01-08T06:31:11.446Z,2.13
2023-01-08T06:36:14.156Z,2.40
2023-01-08T06:41:16.919Z,2.08
2023-01-08T06:46:21.091Z,2.50
2023-01-08T06:51:23.852Z,2.53
2023-01-08T06:56:26.801Z,2.78
2023-01-08T07:01:30.943Z,2.45
2023-01-08T07:06:33.697Z,2.40
2023-01-08T07:11:36.744Z,2.70
2023-01-08T07:16:40.882Z,2.03
2023-01-08T07:21:43.632Z,2.70
2023-01-08T07:26:46.333Z,2.72
2023-01-08T07:31:50.414Z,2.50
2023-01-08T07:36:53.179Z,2.53
2023-01-08T07:41:56.257Z,2.80
2023-01-08T07:47:00.293Z,2.92
2023-01-08T07:52:02.990Z,2.47
2023-01-08T07:57:05.848Z,2.22
2023-01-08T08:02:11.888Z,2.33
2023-01-08T08:07:14.913Z,2.30
2023-01-08T08:12:17.683Z,2.40
2023-01-08T08:17:21.842Z,2.95
2023-01-08T08:22:24.587Z,2.38
2023-01-08T08:27:27.586Z,2.38
2023-01-08T08:32:31.785Z,2.45
2023-01-08T08:37:34.515Z,2.40
2023-01-08T08:42:42.660Z,2.40
2023-01-08T08:47:46.798Z,2.47
2023-01-08T08:52:49.891Z,2.72
2023-01-08T08:57:52.958Z,3.00
2023-01-08T09:02:57.200Z,2.63
2023-01-08T09:08:00.124Z,2.55
2023-01-08T09:13:02.972Z,2.40
2023-01-08T09:18:07.176Z,2.38
2023-01-08T09:23:10.790Z,2.70
2023-01-08T09:28:13.983Z,2.90
2023-01-08T09:33:18.030Z,2.80
2023-01-08T09:38:20.725Z,2.95
2023-01-08T09:43:24.691Z,3.20
2023-01-08T09:48:31.084Z,5.50
2023-01-08T09:53:34.217Z,2.90
2023-01-08T09:58:39.756Z,2.85
2023-01-08T10:03:46.437Z,2.88
2023-01-08T10:08:51.021Z,3.13
2023-01-08T10:13:55.957Z,7.32
2023-01-08T10:19:01.734Z,2.60
2023-01-08T10:24:05.028Z,3.10
2023-01-08T10:29:10.257Z,3.50
2023-01-08T10:34:24.104Z,3.38
2023-01-08T10:39:28.547Z,3.08
2023-01-08T10:44:31.473Z,3.53
2023-01-08T10:49:39.110Z,3.63
2023-01-08T10:54:42.221Z,3.45
2023-01-08T10:59:45.289Z,3.28
2023-01-08T11:04:51.233Z,3.80
2023-01-08T11:09:54.449Z,4.35
2023-01-08T11:14:57.546Z,3.72
2023-01-08T11:20:11.219Z,3.58
2023-01-08T11:25:16.140Z,4.47
2023-01-08T11:30:20.991Z,4.78
2023-01-08T11:35:26.914Z,4.57
2023-01-08T11:40:43.153Z,4.07
2023-01-08T11:46:04.051Z,3.65
2023-01-08T11:51:29.633Z,4.53
2023-01-08T11:56:41.868Z,4.57
2023-01-08T12:01:51.398Z,4.40
2023-01-08T12:07:00.465Z,4.63
2023-01-08T12:12:09.898Z,4.60
2023-01-08T12:17:41.193Z,3.97
2023-01-08T12:22:49.671Z,3.88
2023-01-08T12:27:59.942Z,4.55
2023-01-08T12:33:06.146Z,3.78
2023-01-08T12:38:14.967Z,3.97
2023-01-08T12:43:21.420Z,4.00
2023-01-08T12:48:26.755Z,4.05
2023-01-08T12:53:41.338Z,3.95
2023-01-08T12:58:52.809Z,4.20
2023-01-08T13:03:56.302Z,4.30
2023-01-08T13:09:01.789Z,3.85
2023-01-08T13:14:06.489Z,4.07
2023-01-08T13:19:24.444Z,3.50
2023-01-08T13:24:31.553Z,3.35
2023-01-08T13:29:41.675Z,3.65
2023-01-08T13:34:44.480Z,3.35
2023-01-08T13:39:48.789Z,3.38
2023-01-08T13:44:53.237Z,3.40
2023-01-08T13:49:56.898Z,3.47
2023-01-08T13:55:01.744Z,3.08
2023-01-08T14:00:06.688Z,3.45
2023-01-08T14:05:19.828Z,3.00
2023-01-08T14:10:26.167Z,3.13
2023-01-08T14:15:29.871Z,3.08
2023-01-08T14:20:34.338Z,3.15
2023-01-08T14:25:38.633Z,2.67
2023-01-08T14:30:48.870Z,2.53
2023-01-08T14:35:52.202Z,2.40
2023-01-08T14:41:02.121Z,2.40
2023-01-08T14:46:05.113Z,2.38
2023-01-08T14:51:09.286Z,2.33
2023-01-08T14:56:14.611Z,2.53
2023-01-08T15:01:19.729Z,2.45
2023-01-08T15:06:26.322Z,2.80
2023-01-08T15:11:31.979Z,2.70
2023-01-08T15:16:38.731Z,2.20
2023-01-08T15:21:46.955Z,2.17
2023-01-08T15:26:51.399Z,2.25
2023-01-08T15:31:54.471Z,2.50
2023-01-08T15:36:57.237Z,1.92
2023-01-08T15:42:27.573Z,1.83
2023-01-08T15:47:30.271Z,1.75
2023-01-08T15:52:33.448Z,2.30
2023-01-08T15:57:39.780Z,2.58
2023-01-08T16:02:46.473Z,1.95
2023-01-08T16:07:49.715Z,1.52
2023-01-08T16:12:53.938Z,1.75
2023-01-08T16:17:56.894Z,1.80
2023-01-08T16:22:59.796Z,1.40
2023-01-08T16:28:04.161Z,1.30
2023-01-08T16:33:07.006Z,1.42
2023-01-08T16:38:10.786Z,1.40
2023-01-08T16:43:14.900Z,1.23
2023-01-08T16:48:17.864Z,1.50
2023-01-08T16:53:21.870Z,0.98
2023-01-08T16:58:26.034Z,1.42
2023-01-08T17:03:28.957Z,1.40
2023-01-08T17:08:31.721Z,1.00
2023-01-08T17:13:35.932Z,1.73
2023-01-08T17:18:38.997Z,1.90
2023-01-08T17:23:41.966Z,2.15
2023-01-08T17:28:47.116Z,2.10
2023-01-08T17:33:51.057Z,1.63
2023-01-08T17:38:54.520Z,1.80
2023-01-08T17:44:01.882Z,1.75
2023-01-08T17:49:04.680Z,1.30
2023-01-08T17:54:09.740Z,1.90
2023-01-08T17:59:15.700Z,1.50
2023-01-08T18:04:18.505Z,1.60
2023-01-08T18:09:21.620Z,1.60
2023-01-08T18:14:25.784Z,2.10
2023-01-08T18:19:28.547Z,1.83
2023-01-08T18:24:31.503Z,1.60
2023-01-08T18:29:35.736Z,1.83
2023-01-08T18:34:38.827Z,1.80
2023-01-08T18:39:45.706Z,1.83
2023-01-08T18:44:52.546Z,1.75
2023-01-08T18:49:55.927Z,1.83
2023-01-08T18:54:58.725Z,1.95
2023-01-08T19:00:04.520Z,1.80
2023-01-08T19:05:08.013Z,2.10
2023-01-08T19:10:12.374Z,2.10
2023-01-08T19:15:16.686Z,2.20
2023-01-08T19:20:19.619Z,2.20
2023-01-08T19:25:22.476Z,2.30
2023-01-08T19:30:26.682Z,2.22
2023-01-08T19:35:29.535Z,1.92
2023-01-08T19:40:32.353Z,1.83
2023-01-08T19:45:37.960Z,1.80
2023-01-08T19:50:41.108Z,1.80
2023-01-08T19:55:45.269Z,1.83
2023-01-08T20:00:49.460Z,1.20
2023-01-08T20:05:52.267Z,1.70
2023-01-08T20:10:55.082Z,1.67
2023-01-08T20:15:59.221Z,1.95
2023-01-08T20:21:06.735Z,1.98
2023-01-08T20:26:12.007Z,2.25
2023-01-08T20:31:18.996Z,1.98
2023-01-08T20:36:23.850Z,1.90
2023-01-08T20:41:27.232Z,1.50
2023-01-08T20:46:31.444Z,2.03
2023-01-08T20:51:39.552Z,1.63
2023-01-08T20:56:42.693Z,1.65
2023-01-08T21:01:46.870Z,1.83
2023-01-08T21:06:49.944Z,1.50
2023-01-08T21:11:52.839Z,1.85
2023-01-08T21:16:57.327Z,1.92
2023-01-08T21:22:00.051Z,2.17
2023-01-08T21:27:03.470Z,2.00
2023-01-08T21:32:08.027Z,2.10
2023-01-08T21:37:10.863Z,2.47
2023-01-08T21:42:31.341Z,2.78
2023-01-08T21:47:35.421Z,2.35
2023-01-08T21:52:55.156Z,2.28
2023-01-08T21:57:57.853Z,2.22
2023-01-08T22:03:01.974Z,2.08
2023-01-08T22:08:05.433Z,2.30
2023-01-08T22:13:13.404Z,2.85
2023-01-08T22:18:17.691Z,2.05
2023-01-08T22:23:20.385Z,1.92
2023-01-08T22:28:23.316Z,1.88
2023-01-08T22:33:27.402Z,1.83
2023-01-08T22:38:30.181Z,2.08
2023-01-08T22:43:37.811Z,1.90
2023-01-08T22:48:41.987Z,2.00
2023-01-08T22:53:45.146Z,2.13
2023-01-08T22:58:47.911Z,2.88
2023-01-08T23:03:52.336Z,2.08
2023-01-08T23:08:56.126Z,1.95
2023-01-08T23:14:00.882Z,1.80
2023-01-08T23:19:04.942Z,1.80
2023-01-08T23:24:08.840Z,1.95
2023-01-08T23:29:11.886Z,2.10
2023-01-08T23:34:16.256Z,1.80
2023-01-08T23:39:26.561Z,2.15
2023-01-08T23:44:29.535Z,2.00
2023-01-08T23:49:34.517Z,2.00
2023-01-08T23:54:37.301Z,2.25
2023-01-08T23:59:40.039Z,2.10
